CGQ weather

Public forecast

Using degrees Celsius for public forecast. Weather courtesy of forecast.io.

Current aviation weather report (METAR) for Longjia Airport

Retrieved 2020/08/12 18:00 UTC (3 minutes ago):

ZYCC 121800Z VRB01MPS CAVOK 20/16 Q1010 NOSIG

Aviation forecast (TAF) for Longjia Airport

Retrieved 2020/08/12 18:03 UTC (0 seconds ago):

TAF ZYCC 121503Z 1218/1318 10004MPS 5000 -RA BR SCT023 TX25/1306Z TN20/1221Z TEMPO 1306/1312 16009G16MPS 2000 SHRA FEW006 SCT020CB BKN020